sensor_id;sensor_type;location;lat;lon;timestamp;temperature;humidity
18361;SHT31;9308;48.550;9.108;2022-07-17T00:01:27;17.23;56.31
18361;SHT31;9308;48.550;9.108;2022-07-17T00:03:53;17.21;56.53
18361;SHT31;9308;48.550;9.108;2022-07-17T00:06:18;17.19;56.61
18361;SHT31;9308;48.550;9.108;2022-07-17T00:08:44;17.03;57.74
18361;SHT31;9308;48.550;9.108;2022-07-17T00:11:09;16.88;57.93
18361;SHT31;9308;48.550;9.108;2022-07-17T00:13:35;16.98;58.02
18361;SHT31;9308;48.550;9.108;2022-07-17T00:16:00;16.64;59.23
18361;SHT31;9308;48.550;9.108;2022-07-17T00:18:26;16.77;59.23
18361;SHT31;9308;48.550;9.108;2022-07-17T00:20:51;16.93;58.74
18361;SHT31;9308;48.550;9.108;2022-07-17T00:23:17;16.75;59.14
18361;SHT31;9308;48.550;9.108;2022-07-17T00:25:42;16.64;59.76
18361;SHT31;9308;48.550;9.108;2022-07-17T00:28:08;16.49;60.04
18361;SHT31;9308;48.550;9.108;2022-07-17T00:30:33;16.56;60.12
18361;SHT31;9308;48.550;9.108;2022-07-17T00:32:59;16.48;60.19
18361;SHT31;9308;48.550;9.108;2022-07-17T00:35:24;16.44;60.35
18361;SHT31;9308;48.550;9.108;2022-07-17T00:37:50;16.44;60.33
18361;SHT31;9308;48.550;9.108;2022-07-17T00:40:20;16.18;61.47
18361;SHT31;9308;48.550;9.108;2022-07-17T00:42:47;16.24;61.23
18361;SHT31;9308;48.550;9.108;2022-07-17T00:45:13;16.27;61.15
18361;SHT31;9308;48.550;9.108;2022-07-17T00:47:58;16.20;61.17
18361;SHT31;9308;48.550;9.108;2022-07-17T00:50:33;16.09;61.36
18361;SHT31;9308;48.550;9.108;2022-07-17T00:52:59;16.07;61.21
18361;SHT31;9308;48.550;9.108;2022-07-17T00:55:25;15.93;61.36
18361;SHT31;9308;48.550;9.108;2022-07-17T00:57:51;15.73;62.06
18361;SHT31;9308;48.550;9.108;2022-07-17T01:00:20;15.68;62.46
18361;SHT31;9308;48.550;9.108;2022-07-17T01:02:50;15.76;62.21
18361;SHT31;9308;48.550;9.108;2022-07-17T01:05:17;15.82;62.04
18361;SHT31;9308;48.550;9.108;2022-07-17T01:07:43;15.71;62.40
18361;SHT31;9308;48.550;9.108;2022-07-17T01:10:10;15.62;62.91
18361;SHT31;9308;48.550;9.108;2022-07-17T01:12:36;15.58;63.01
18361;SHT31;9308;48.550;9.108;2022-07-17T01:15:02;15.54;62.90
18361;SHT31;9308;48.550;9.108;2022-07-17T01:17:29;15.61;63.07
18361;SHT31;9308;48.550;9.108;2022-07-17T01:19:55;15.66;62.95
18361;SHT31;9308;48.550;9.108;2022-07-17T01:22:20;15.55;62.72
18361;SHT31;9308;48.550;9.108;2022-07-17T01:24:46;15.58;63.02
18361;SHT31;9308;48.550;9.108;2022-07-17T01:27:11;15.57;63.09
18361;SHT31;9308;48.550;9.108;2022-07-17T01:29:37;15.66;62.34
18361;SHT31;9308;48.550;9.108;2022-07-17T01:32:03;15.69;62.63
18361;SHT31;9308;48.550;9.108;2022-07-17T01:34:29;15.59;63.09
18361;SHT31;9308;48.550;9.108;2022-07-17T01:36:54;15.54;63.16
18361;SHT31;9308;48.550;9.108;2022-07-17T01:39:20;15.41;63.15
18361;SHT31;9308;48.550;9.108;2022-07-17T01:42:09;15.58;62.61
18361;SHT31;9308;48.550;9.108;2022-07-17T01:44:35;15.55;63.04
18361;SHT31;9308;48.550;9.108;2022-07-17T01:47:01;15.57;63.02
18361;SHT31;9308;48.550;9.108;2022-07-17T01:49:27;15.38;63.26
18361;SHT31;9308;48.550;9.108;2022-07-17T01:51:53;15.30;63.56
18361;SHT31;9308;48.550;9.108;2022-07-17T01:54:18;15.15;64.14
18361;SHT31;9308;48.550;9.108;2022-07-17T01:56:44;15.18;64.03
18361;SHT31;9308;48.550;9.108;2022-07-17T01:59:09;15.18;64.12
18361;SHT31;9308;48.550;9.108;2022-07-17T02:01:34;15.15;63.90
18361;SHT31;9308;48.550;9.108;2022-07-17T02:04:00;15.30;63.93
18361;SHT31;9308;48.550;9.108;2022-07-17T02:06:25;15.06;64.12
18361;SHT31;9308;48.550;9.108;2022-07-17T02:08:51;15.47;62.97
18361;SHT31;9308;48.550;9.108;2022-07-17T02:11:18;15.32;63.51
18361;SHT31;9308;48.550;9.108;2022-07-17T02:13:43;15.30;63.49
18361;SHT31;9308;48.550;9.108;2022-07-17T02:16:09;15.24;64.09
18361;SHT31;9308;48.550;9.108;2022-07-17T02:18:34;15.28;63.72
18361;SHT31;9308;48.550;9.108;2022-07-17T02:21:00;15.42;62.95
18361;SHT31;9308;48.550;9.108;2022-07-17T02:23:26;15.13;63.99
18361;SHT31;9308;48.550;9.108;2022-07-17T02:25:51;15.15;64.11
18361;SHT31;9308;48.550;9.108;2022-07-17T02:28:17;15.04;64.89
18361;SHT31;9308;48.550;9.108;2022-07-17T02:30:42;15.00;64.69
18361;SHT31;9308;48.550;9.108;2022-07-17T02:33:08;15.20;64.25
18361;SHT31;9308;48.550;9.108;2022-07-17T02:35:33;15.03;64.54
18361;SHT31;9308;48.550;9.108;2022-07-17T02:37:59;14.87;65.44
18361;SHT31;9308;48.550;9.108;2022-07-17T02:40:25;14.90;65.10
18361;SHT31;9308;48.550;9.108;2022-07-17T02:42:50;15.11;64.94
18361;SHT31;9308;48.550;9.108;2022-07-17T02:45:16;15.08;64.68
18361;SHT31;9308;48.550;9.108;2022-07-17T02:47:43;15.02;64.56
18361;SHT31;9308;48.550;9.108;2022-07-17T02:50:09;14.89;64.92
18361;SHT31;9308;48.550;9.108;2022-07-17T02:52:36;14.89;65.17
18361;SHT31;9308;48.550;9.108;2022-07-17T02:55:02;14.99;64.71
18361;SHT31;9308;48.550;9.108;2022-07-17T02:57:28;15.04;64.56
18361;SHT31;9308;48.550;9.108;2022-07-17T02:59:53;14.83;65.62
18361;SHT31;9308;48.550;9.108;2022-07-17T03:02:19;14.69;66.16
18361;SHT31;9308;48.550;9.108;2022-07-17T03:04:44;14.62;66.08
18361;SHT31;9308;48.550;9.108;2022-07-17T03:07:10;14.59;65.89
18361;SHT31;9308;48.550;9.108;2022-07-17T03:09:35;14.49;66.88
18361;SHT31;9308;48.550;9.108;2022-07-17T03:12:01;14.77;65.65
18361;SHT31;9308;48.550;9.108;2022-07-17T03:14:26;14.82;65.48
18361;SHT31;9308;48.550;9.108;2022-07-17T03:16:52;14.58;66.18
18361;SHT31;9308;48.550;9.108;2022-07-17T03:19:17;14.52;66.18
18361;SHT31;9308;48.550;9.108;2022-07-17T03:21:44;14.52;66.58
18361;SHT31;9308;48.550;9.108;2022-07-17T03:24:09;14.28;66.79
18361;SHT31;9308;48.550;9.108;2022-07-17T03:26:35;14.16;67.35
18361;SHT31;9308;48.550;9.108;2022-07-17T03:29:00;13.86;68.65
18361;SHT31;9308;48.550;9.108;2022-07-17T03:31:26;14.16;67.91
18361;SHT31;9308;48.550;9.108;2022-07-17T03:33:51;14.14;67.65
18361;SHT31;9308;48.550;9.108;2022-07-17T03:36:17;14.24;67.45
18361;SHT31;9308;48.550;9.108;2022-07-17T03:38:42;13.82;68.74
18361;SHT31;9308;48.550;9.108;2022-07-17T03:41:08;13.87;68.65
18361;SHT31;9308;48.550;9.108;2022-07-17T03:43:33;14.04;68.21
18361;SHT31;9308;48.550;9.108;2022-07-17T03:45:58;14.16;67.03
18361;SHT31;9308;48.550;9.108;2022-07-17T03:48:24;14.06;67.50
18361;SHT31;9308;48.550;9.108;2022-07-17T03:50:49;14.16;67.09
18361;SHT31;9308;48.550;9.108;2022-07-17T03:53:15;14.34;66.72
18361;SHT31;9308;48.550;9.108;2022-07-17T03:55:40;13.94;67.75
18361;SHT31;9308;48.550;9.108;2022-07-17T03:58:05;13.81;68.27
18361;SHT31;9308;48.550;9.108;2022-07-17T04:00:31;14.04;67.86
18361;SHT31;9308;48.550;9.108;2022-07-17T04:02:56;14.07;68.02
18361;SHT31;9308;48.550;9.108;2022-07-17T04:05:22;14.24;67.64
18361;SHT31;9308;48.550;9.108;2022-07-17T04:07:47;14.22;67.39
18361;SHT31;9308;48.550;9.108;2022-07-17T04:10:14;14.25;67.43
18361;SHT31;9308;48.550;9.108;2022-07-17T04:12:39;14.45;66.90
18361;SHT31;9308;48.550;9.108;2022-07-17T04:15:06;14.38;67.09
18361;SHT31;9308;48.550;9.108;2022-07-17T04:17:32;14.30;67.28
18361;SHT31;9308;48.550;9.108;2022-07-17T04:19:57;14.30;67.38
18361;SHT31;9308;48.550;9.108;2022-07-17T04:22:23;14.48;66.51
18361;SHT31;9308;48.550;9.108;2022-07-17T04:24:49;14.52;66.20
18361;SHT31;9308;48.550;9.108;2022-07-17T04:27:15;14.44;66.35
18361;SHT31;9308;48.550;9.108;2022-07-17T04:29:40;14.54;66.75
18361;SHT31;9308;48.550;9.108;2022-07-17T04:32:06;14.57;66.88
18361;SHT31;9308;48.550;9.108;2022-07-17T04:34:32;14.55;66.82
18361;SHT31;9308;48.550;9.108;2022-07-17T04:36:58;14.69;66.78
18361;SHT31;9308;48.550;9.108;2022-07-17T04:39:24;14.71;66.34
18361;SHT31;9308;48.550;9.108;2022-07-17T04:41:50;14.76;66.88
18361;SHT31;9308;48.550;9.108;2022-07-17T04:44:15;15.02;65.63
18361;SHT31;9308;48.550;9.108;2022-07-17T04:46:41;15.18;64.87
18361;SHT31;9308;48.550;9.108;2022-07-17T04:49:06;15.26;64.88
18361;SHT31;9308;48.550;9.108;2022-07-17T04:51:32;15.20;65.13
18361;SHT31;9308;48.550;9.108;2022-07-17T04:53:57;15.20;65.25
18361;SHT31;9308;48.550;9.108;2022-07-17T04:56:23;15.28;65.04
18361;SHT31;9308;48.550;9.108;2022-07-17T04:58:48;15.37;64.82
18361;SHT31;9308;48.550;9.108;2022-07-17T05:01:14;15.31;65.06
18361;SHT31;9308;48.550;9.108;2022-07-17T05:03:39;15.31;64.91
18361;SHT31;9308;48.550;9.108;2022-07-17T05:06:05;15.47;64.45
18361;SHT31;9308;48.550;9.108;2022-07-17T05:08:31;15.52;64.55
18361;SHT31;9308;48.550;9.108;2022-07-17T05:10:56;15.71;65.37
18361;SHT31;9308;48.550;9.108;2022-07-17T05:13:22;15.61;66.11
18361;SHT31;9308;48.550;9.108;2022-07-17T05:15:47;15.69;65.37
18361;SHT31;9308;48.550;9.108;2022-07-17T05:18:14;15.80;65.80
18361;SHT31;9308;48.550;9.108;2022-07-17T05:20:40;15.96;65.01
18361;SHT31;9308;48.550;9.108;2022-07-17T05:23:06;16.07;65.45
18361;SHT31;9308;48.550;9.108;2022-07-17T05:25:32;16.18;65.38
18361;SHT31;9308;48.550;9.108;2022-07-17T05:27:57;16.31;64.93
18361;SHT31;9308;48.550;9.108;2022-07-17T05:30:23;16.26;64.91
18361;SHT31;9308;48.550;9.108;2022-07-17T05:32:48;16.38;64.25
18361;SHT31;9308;48.550;9.108;2022-07-17T05:35:14;16.54;64.19
18361;SHT31;9308;48.550;9.108;2022-07-17T05:37:39;16.56;64.08
18361;SHT31;9308;48.550;9.108;2022-07-17T05:40:05;16.61;63.68
18361;SHT31;9308;48.550;9.108;2022-07-17T05:42:31;16.83;62.73
18361;SHT31;9308;48.550;9.108;2022-07-17T05:44:56;16.77;62.79
18361;SHT31;9308;48.550;9.108;2022-07-17T05:47:24;16.89;62.23
18361;SHT31;9308;48.550;9.108;2022-07-17T05:49:49;17.02;62.22
18361;SHT31;9308;48.550;9.108;2022-07-17T05:52:15;17.27;60.97
18361;SHT31;9308;48.550;9.108;2022-07-17T05:54:40;17.42;61.04
18361;SHT31;9308;48.550;9.108;2022-07-17T05:57:06;17.31;63.17
18361;SHT31;9308;48.550;9.108;2022-07-17T05:59:31;17.27;61.77
18361;SHT31;9308;48.550;9.108;2022-07-17T06:01:56;17.61;61.33
18361;SHT31;9308;48.550;9.108;2022-07-17T06:04:22;17.49;62.01
18361;SHT31;9308;48.550;9.108;2022-07-17T06:06:47;17.62;63.16
18361;SHT31;9308;48.550;9.108;2022-07-17T06:09:12;17.76;63.22
18361;SHT31;9308;48.550;9.108;2022-07-17T06:11:38;17.74;63.74
18361;SHT31;9308;48.550;9.108;2022-07-17T06:14:03;17.68;63.83
18361;SHT31;9308;48.550;9.108;2022-07-17T06:16:29;17.83;64.26
18361;SHT31;9308;48.550;9.108;2022-07-17T06:18:54;17.99;63.29
18361;SHT31;9308;48.550;9.108;2022-07-17T06:21:20;18.17;62.62
18361;SHT31;9308;48.550;9.108;2022-07-17T06:23:45;18.14;62.90
18361;SHT31;9308;48.550;9.108;2022-07-17T06:26:11;18.41;61.86
18361;SHT31;9308;48.550;9.108;2022-07-17T06:28:36;18.48;60.28
18361;SHT31;9308;48.550;9.108;2022-07-17T06:31:01;18.41;60.94
18361;SHT31;9308;48.550;9.108;2022-07-17T06:33:27;18.64;60.23
18361;SHT31;9308;48.550;9.108;2022-07-17T06:35:52;18.89;59.71
18361;SHT31;9308;48.550;9.108;2022-07-17T06:38:18;18.92;59.61
18361;SHT31;9308;48.550;9.108;2022-07-17T06:40:43;19.16;60.03
18361;SHT31;9308;48.550;9.108;2022-07-17T06:43:09;19.34;57.43
18361;SHT31;9308;48.550;9.108;2022-07-17T06:45:35;19.33;57.60
18361;SHT31;9308;48.550;9.108;2022-07-17T06:48:01;19.28;58.12
18361;SHT31;9308;48.550;9.108;2022-07-17T06:50:26;19.54;57.18
18361;SHT31;9308;48.550;9.108;2022-07-17T06:52:52;19.51;57.55
18361;SHT31;9308;48.550;9.108;2022-07-17T06:55:17;19.62;55.46
18361;SHT31;9308;48.550;9.108;2022-07-17T06:57:43;19.58;56.70
18361;SHT31;9308;48.550;9.108;2022-07-17T07:00:08;19.86;55.81
18361;SHT31;9308;48.550;9.108;2022-07-17T07:02:35;19.92;56.23
18361;SHT31;9308;48.550;9.108;2022-07-17T07:05:00;19.98;55.20
18361;SHT31;9308;48.550;9.108;2022-07-17T07:07:26;20.14;54.54
18361;SHT31;9308;48.550;9.108;2022-07-17T07:09:51;20.31;53.60
18361;SHT31;9308;48.550;9.108;2022-07-17T07:12:17;20.27;53.47
18361;SHT31;9308;48.550;9.108;2022-07-17T07:14:42;20.69;53.98
18361;SHT31;9308;48.550;9.108;2022-07-17T07:17:07;20.67;53.44
18361;SHT31;9308;48.550;9.108;2022-07-17T07:19:33;20.81;53.20
18361;SHT31;9308;48.550;9.108;2022-07-17T07:21:59;20.94;52.99
18361;SHT31;9308;48.550;9.108;2022-07-17T07:24:24;21.15;52.98
18361;SHT31;9308;48.550;9.108;2022-07-17T07:26:50;21.09;51.13
18361;SHT31;9308;48.550;9.108;2022-07-17T07:29:15;21.24;50.90
18361;SHT31;9308;48.550;9.108;2022-07-17T07:31:41;21.55;50.73
18361;SHT31;9308;48.550;9.108;2022-07-17T07:34:07;21.70;49.94
18361;SHT31;9308;48.550;9.108;2022-07-17T07:36:32;21.81;50.06
18361;SHT31;9308;48.550;9.108;2022-07-17T07:38:58;22.09;49.22
18361;SHT31;9308;48.550;9.108;2022-07-17T07:41:24;22.26;49.89
18361;SHT31;9308;48.550;9.108;2022-07-17T07:43:49;22.57;49.52
18361;SHT31;9308;48.550;9.108;2022-07-17T07:46:15;22.52;49.64
18361;SHT31;9308;48.550;9.108;2022-07-17T07:48:40;22.63;48.22
18361;SHT31;9308;48.550;9.108;2022-07-17T07:51:06;22.71;48.21
18361;SHT31;9308;48.550;9.108;2022-07-17T07:53:32;23.11;47.89
18361;SHT31;9308;48.550;9.108;2022-07-17T07:55:57;23.29;46.85
18361;SHT31;9308;48.550;9.108;2022-07-17T07:58:22;23.60;47.67
18361;SHT31;9308;48.550;9.108;2022-07-17T08:00:48;23.70;46.31
18361;SHT31;9308;48.550;9.108;2022-07-17T08:03:14;23.57;45.45
18361;SHT31;9308;48.550;9.108;2022-07-17T08:05:40;23.66;46.23
18361;SHT31;9308;48.550;9.108;2022-07-17T08:08:05;23.54;46.85
18361;SHT31;9308;48.550;9.108;2022-07-17T08:10:30;24.15;45.18
18361;SHT31;9308;48.550;9.108;2022-07-17T08:12:56;24.33;46.65
18361;SHT31;9308;48.550;9.108;2022-07-17T08:15:22;24.38;45.74
18361;SHT31;9308;48.550;9.108;2022-07-17T08:17:50;24.43;46.01
18361;SHT31;9308;48.550;9.108;2022-07-17T08:20:19;24.40;46.16
18361;SHT31;9308;48.550;9.108;2022-07-17T08:22:49;24.74;46.49
18361;SHT31;9308;48.550;9.108;2022-07-17T08:25:14;24.52;43.79
18361;SHT31;9308;48.550;9.108;2022-07-17T08:27:41;24.52;44.33
18361;SHT31;9308;48.550;9.108;2022-07-17T08:30:08;24.86;44.26
18361;SHT31;9308;48.550;9.108;2022-07-17T08:32:35;24.42;44.84
18361;SHT31;9308;48.550;9.108;2022-07-17T08:35:01;24.78;44.14
18361;SHT31;9308;48.550;9.108;2022-07-17T08:37:26;25.43;44.45
18361;SHT31;9308;48.550;9.108;2022-07-17T08:39:52;24.86;43.12
18361;SHT31;9308;48.550;9.108;2022-07-17T08:42:17;25.43;42.00
18361;SHT31;9308;48.550;9.108;2022-07-17T08:44:43;25.10;44.03
18361;SHT31;9308;48.550;9.108;2022-07-17T08:47:11;25.71;43.73
18361;SHT31;9308;48.550;9.108;2022-07-17T08:49:40;25.70;42.83
18361;SHT31;9308;48.550;9.108;2022-07-17T08:52:09;25.98;41.79
18361;SHT31;9308;48.550;9.108;2022-07-17T08:54:35;25.73;41.88
18361;SHT31;9308;48.550;9.108;2022-07-17T08:57:02;25.93;43.37
18361;SHT31;9308;48.550;9.108;2022-07-17T08:59:27;26.18;42.22
18361;SHT31;9308;48.550;9.108;2022-07-17T09:01:53;25.66;40.98
18361;SHT31;9308;48.550;9.108;2022-07-17T09:04:18;26.09;40.35
18361;SHT31;9308;48.550;9.108;2022-07-17T09:06:44;25.83;41.01
18361;SHT31;9308;48.550;9.108;2022-07-17T09:09:13;26.38;41.33
18361;SHT31;9308;48.550;9.108;2022-07-17T09:14:09;26.45;39.72
18361;SHT31;9308;48.550;9.108;2022-07-17T09:16:35;26.83;39.82
18361;SHT31;9308;48.550;9.108;2022-07-17T09:19:01;26.96;39.29
18361;SHT31;9308;48.550;9.108;2022-07-17T09:21:28;26.80;39.04
18361;SHT31;9308;48.550;9.108;2022-07-17T09:23:59;27.04;39.24
18361;SHT31;9308;48.550;9.108;2022-07-17T09:26:25;27.44;39.18
18361;SHT31;9308;48.550;9.108;2022-07-17T09:28:50;27.39;38.51
18361;SHT31;9308;48.550;9.108;2022-07-17T09:31:27;27.65;40.25
18361;SHT31;9308;48.550;9.108;2022-07-17T09:33:54;27.67;39.24
18361;SHT31;9308;48.550;9.108;2022-07-17T09:36:19;27.32;38.21
18361;SHT31;9308;48.550;9.108;2022-07-17T09:38:45;27.90;37.74
18361;SHT31;9308;48.550;9.108;2022-07-17T09:41:13;28.25;39.45
18361;SHT31;9308;48.550;9.108;2022-07-17T09:43:46;28.07;37.43
18361;SHT31;9308;48.550;9.108;2022-07-17T09:46:23;28.14;37.78
18361;SHT31;9308;48.550;9.108;2022-07-17T09:48:50;28.06;36.40
18361;SHT31;9308;48.550;9.108;2022-07-17T09:51:19;28.16;37.55
18361;SHT31;9308;48.550;9.108;2022-07-17T09:53:46;28.23;36.71
18361;SHT31;9308;48.550;9.108;2022-07-17T09:56:15;27.47;36.30
18361;SHT31;9308;48.550;9.108;2022-07-17T09:58:43;27.77;35.91
18361;SHT31;9308;48.550;9.108;2022-07-17T10:01:10;28.07;37.03
18361;SHT31;9308;48.550;9.108;2022-07-17T10:03:35;27.75;34.68
18361;SHT31;9308;48.550;9.108;2022-07-17T10:06:01;27.38;35.93
18361;SHT31;9308;48.550;9.108;2022-07-17T10:08:27;27.85;37.78
18361;SHT31;9308;48.550;9.108;2022-07-17T10:10:54;28.40;37.18
18361;SHT31;9308;48.550;9.108;2022-07-17T10:13:20;28.55;36.66
18361;SHT31;9308;48.550;9.108;2022-07-17T10:15:45;28.18;35.37
18361;SHT31;9308;48.550;9.108;2022-07-17T10:18:11;28.00;33.90
18361;SHT31;9308;48.550;9.108;2022-07-17T10:20:37;28.25;35.51
18361;SHT31;9308;48.550;9.108;2022-07-17T10:23:15;28.86;34.03
18361;SHT31;9308;48.550;9.108;2022-07-17T10:25:41;28.49;34.98
18361;SHT31;9308;48.550;9.108;2022-07-17T10:28:08;28.16;33.25
18361;SHT31;9308;48.550;9.108;2022-07-17T10:30:33;28.42;36.09
18361;SHT31;9308;48.550;9.108;2022-07-17T10:33:01;28.58;33.64
18361;SHT31;9308;48.550;9.108;2022-07-17T10:35:42;28.78;33.50
18361;SHT31;9308;48.550;9.108;2022-07-17T10:38:10;28.27;32.08
18361;SHT31;9308;48.550;9.108;2022-07-17T10:40:40;28.89;32.24
18361;SHT31;9308;48.550;9.108;2022-07-17T10:43:08;29.10;32.94
18361;SHT31;9308;48.550;9.108;2022-07-17T10:45:39;29.33;33.47
18361;SHT31;9308;48.550;9.108;2022-07-17T10:48:25;28.68;31.17
18361;SHT31;9308;48.550;9.108;2022-07-17T10:50:53;29.30;31.77
18361;SHT31;9308;48.550;9.108;2022-07-17T10:53:24;29.02;31.69
18361;SHT31;9308;48.550;9.108;2022-07-17T10:56:03;29.34;32.85
18361;SHT31;9308;48.550;9.108;2022-07-17T10:58:32;29.11;30.95
18361;SHT31;9308;48.550;9.108;2022-07-17T11:08:51;28.71;28.70
18361;SHT31;9308;48.550;9.108;2022-07-17T11:11:22;28.71;28.44
18361;SHT31;9308;48.550;9.108;2022-07-17T11:13:49;29.06;26.28
18361;SHT31;9308;48.550;9.108;2022-07-17T11:16:28;29.18;25.81
18361;SHT31;9308;48.550;9.108;2022-07-17T11:18:55;29.40;27.16
18361;SHT31;9308;48.550;9.108;2022-07-17T11:21:21;29.58;25.97
18361;SHT31;9308;48.550;9.108;2022-07-17T11:23:55;29.66;27.69
18361;SHT31;9308;48.550;9.108;2022-07-17T11:26:21;29.31;27.24
18361;SHT31;9308;48.550;9.108;2022-07-17T11:28:48;29.68;29.40
18361;SHT31;9308;48.550;9.108;2022-07-17T11:33:48;30.27;26.42
18361;SHT31;9308;48.550;9.108;2022-07-17T11:36:21;30.05;26.09
18361;SHT31;9308;48.550;9.108;2022-07-17T11:38:47;30.08;27.18
18361;SHT31;9308;48.550;9.108;2022-07-17T11:41:14;29.79;29.14
18361;SHT31;9308;48.550;9.108;2022-07-17T11:43:40;29.14;29.62
18361;SHT31;9308;48.550;9.108;2022-07-17T11:46:07;29.37;29.58
18361;SHT31;9308;48.550;9.108;2022-07-17T11:48:33;29.57;28.64
18361;SHT31;9308;48.550;9.108;2022-07-17T11:50:58;29.84;28.05
18361;SHT31;9308;48.550;9.108;2022-07-17T11:53:34;29.35;27.38
18361;SHT31;9308;48.550;9.108;2022-07-17T11:56:01;29.76;29.11
18361;SHT31;9308;48.550;9.108;2022-07-17T11:58:27;30.17;30.24
18361;SHT31;9308;48.550;9.108;2022-07-17T12:01:03;30.48;29.29
18361;SHT31;9308;48.550;9.108;2022-07-17T12:03:29;30.34;29.07
18361;SHT31;9308;48.550;9.108;2022-07-17T12:05:55;30.05;28.02
18361;SHT31;9308;48.550;9.108;2022-07-17T12:08:20;29.84;28.39
18361;SHT31;9308;48.550;9.108;2022-07-17T12:10:46;29.85;27.34
18361;SHT31;9308;48.550;9.108;2022-07-17T12:13:13;30.30;27.14
18361;SHT31;9308;48.550;9.108;2022-07-17T12:15:47;30.33;26.52
18361;SHT31;9308;48.550;9.108;2022-07-17T12:18:27;29.89;26.52
18361;SHT31;9308;48.550;9.108;2022-07-17T12:20:58;30.20;27.89
18361;SHT31;9308;48.550;9.108;2022-07-17T12:23:38;30.33;26.11
18361;SHT31;9308;48.550;9.108;2022-07-17T12:26:15;30.37;24.88
18361;SHT31;9308;48.550;9.108;2022-07-17T12:28:43;29.85;26.91
18361;SHT31;9308;48.550;9.108;2022-07-17T12:31:10;30.48;26.83
18361;SHT31;9308;48.550;9.108;2022-07-17T12:33:35;30.21;29.36
18361;SHT31;9308;48.550;9.108;2022-07-17T12:36:01;30.72;29.78
18361;SHT31;9308;48.550;9.108;2022-07-17T12:38:26;30.51;29.61
18361;SHT31;9308;48.550;9.108;2022-07-17T12:40:52;30.71;27.80
18361;SHT31;9308;48.550;9.108;2022-07-17T12:43:17;30.79;27.54
18361;SHT31;9308;48.550;9.108;2022-07-17T12:45:43;30.76;26.87
18361;SHT31;9308;48.550;9.108;2022-07-17T12:48:08;30.95;26.78
18361;SHT31;9308;48.550;9.108;2022-07-17T12:50:34;30.88;26.96
18361;SHT31;9308;48.550;9.108;2022-07-17T12:52:59;30.86;26.73
18361;SHT31;9308;48.550;9.108;2022-07-17T12:55:25;30.51;26.18
18361;SHT31;9308;48.550;9.108;2022-07-17T12:57:50;30.74;26.36
18361;SHT31;9308;48.550;9.108;2022-07-17T13:00:16;30.79;27.67
18361;SHT31;9308;48.550;9.108;2022-07-17T13:02:41;30.46;25.71
18361;SHT31;9308;48.550;9.108;2022-07-17T13:05:07;30.50;26.05
18361;SHT31;9308;48.550;9.108;2022-07-17T13:07:33;30.82;26.25
18361;SHT31;9308;48.550;9.108;2022-07-17T13:09:59;30.95;26.47
18361;SHT31;9308;48.550;9.108;2022-07-17T13:12:24;30.71;25.03
18361;SHT31;9308;48.550;9.108;2022-07-17T13:14:50;30.65;24.54
18361;SHT31;9308;48.550;9.108;2022-07-17T13:17:15;30.85;25.23
18361;SHT31;9308;48.550;9.108;2022-07-17T13:19:41;30.58;24.49
18361;SHT31;9308;48.550;9.108;2022-07-17T13:22:06;30.86;25.05
18361;SHT31;9308;48.550;9.108;2022-07-17T13:24:32;31.03;26.41
18361;SHT31;9308;48.550;9.108;2022-07-17T13:26:58;30.91;26.52
18361;SHT31;9308;48.550;9.108;2022-07-17T13:29:24;31.37;26.31
18361;SHT31;9308;48.550;9.108;2022-07-17T13:31:52;31.23;27.59
18361;SHT31;9308;48.550;9.108;2022-07-17T13:34:19;30.99;27.76
18361;SHT31;9308;48.550;9.108;2022-07-17T13:36:45;31.36;28.38
18361;SHT31;9308;48.550;9.108;2022-07-17T13:39:10;31.29;27.58
18361;SHT31;9308;48.550;9.108;2022-07-17T13:41:39;31.23;27.45
18361;SHT31;9308;48.550;9.108;2022-07-17T13:44:05;31.41;26.99
18361;SHT31;9308;48.550;9.108;2022-07-17T13:46:31;31.09;25.60
18361;SHT31;9308;48.550;9.108;2022-07-17T13:48:56;31.26;25.12
18361;SHT31;9308;48.550;9.108;2022-07-17T13:51:22;31.48;25.75
18361;SHT31;9308;48.550;9.108;2022-07-17T13:53:47;31.51;25.87
18361;SHT31;9308;48.550;9.108;2022-07-17T13:56:13;31.06;23.26
18361;SHT31;9308;48.550;9.108;2022-07-17T13:58:39;31.43;23.13
18361;SHT31;9308;48.550;9.108;2022-07-17T14:01:04;31.23;21.77
18361;SHT31;9308;48.550;9.108;2022-07-17T14:03:30;31.56;22.03
18361;SHT31;9308;48.550;9.108;2022-07-17T14:05:56;31.82;24.54
18361;SHT31;9308;48.550;9.108;2022-07-17T14:08:21;31.39;22.99
18361;SHT31;9308;48.550;9.108;2022-07-17T14:10:47;31.27;23.02
18361;SHT31;9308;48.550;9.108;2022-07-17T14:13:12;31.54;23.97
18361;SHT31;9308;48.550;9.108;2022-07-17T14:15:38;31.46;25.27
18361;SHT31;9308;48.550;9.108;2022-07-17T14:18:03;31.13;25.64
18361;SHT31;9308;48.550;9.108;2022-07-17T14:20:29;31.67;26.91
18361;SHT31;9308;48.550;9.108;2022-07-17T14:22:54;31.77;27.32
18361;SHT31;9308;48.550;9.108;2022-07-17T14:25:20;31.61;25.52
18361;SHT31;9308;48.550;9.108;2022-07-17T14:27:45;31.50;26.49
18361;SHT31;9308;48.550;9.108;2022-07-17T14:30:11;31.29;26.58
18361;SHT31;9308;48.550;9.108;2022-07-17T14:32:36;31.12;25.27
18361;SHT31;9308;48.550;9.108;2022-07-17T14:35:03;31.30;24.95
18361;SHT31;9308;48.550;9.108;2022-07-17T14:37:29;31.37;24.94
18361;SHT31;9308;48.550;9.108;2022-07-17T14:39:54;31.34;26.22
18361;SHT31;9308;48.550;9.108;2022-07-17T14:42:20;31.19;25.70
18361;SHT31;9308;48.550;9.108;2022-07-17T14:44:45;31.29;27.00
18361;SHT31;9308;48.550;9.108;2022-07-17T14:47:11;31.19;26.59
18361;SHT31;9308;48.550;9.108;2022-07-17T14:49:37;31.26;26.31
18361;SHT31;9308;48.550;9.108;2022-07-17T14:52:02;31.05;25.04
18361;SHT31;9308;48.550;9.108;2022-07-17T14:54:28;31.51;27.58
18361;SHT31;9308;48.550;9.108;2022-07-17T14:56:53;31.80;25.82
18361;SHT31;9308;48.550;9.108;2022-07-17T14:59:19;31.19;26.13
18361;SHT31;9308;48.550;9.108;2022-07-17T15:01:44;31.41;27.41
18361;SHT31;9308;48.550;9.108;2022-07-17T15:04:10;31.39;25.35
18361;SHT31;9308;48.550;9.108;2022-07-17T15:06:38;31.98;28.15
18361;SHT31;9308;48.550;9.108;2022-07-17T15:09:04;31.51;26.67
18361;SHT31;9308;48.550;9.108;2022-07-17T15:11:30;31.37;25.43
18361;SHT31;9308;48.550;9.108;2022-07-17T15:13:55;31.40;25.85
18361;SHT31;9308;48.550;9.108;2022-07-17T15:16:20;31.46;26.77
18361;SHT31;9308;48.550;9.108;2022-07-17T15:18:46;31.61;27.20
18361;SHT31;9308;48.550;9.108;2022-07-17T15:21:13;31.57;26.29
18361;SHT31;9308;48.550;9.108;2022-07-17T15:23:38;31.16;26.32
18361;SHT31;9308;48.550;9.108;2022-07-17T15:26:04;31.48;27.89
18361;SHT31;9308;48.550;9.108;2022-07-17T15:28:29;31.91;26.82
18361;SHT31;9308;48.550;9.108;2022-07-17T15:30:54;31.48;26.74
18361;SHT31;9308;48.550;9.108;2022-07-17T15:33:20;31.61;24.84
18361;SHT31;9308;48.550;9.108;2022-07-17T15:35:45;32.02;25.14
18361;SHT31;9308;48.550;9.108;2022-07-17T15:38:11;32.43;26.83
18361;SHT31;9308;48.550;9.108;2022-07-17T15:40:37;32.02;26.68
18361;SHT31;9308;48.550;9.108;2022-07-17T15:43:02;32.13;27.45
18361;SHT31;9308;48.550;9.108;2022-07-17T15:45:28;32.13;26.29
18361;SHT31;9308;48.550;9.108;2022-07-17T15:47:53;32.16;26.42
18361;SHT31;9308;48.550;9.108;2022-07-17T15:50:19;31.68;28.23
18361;SHT31;9308;48.550;9.108;2022-07-17T15:52:45;31.54;27.15